Aviation Digital Data Service (ADDS)

Output produced by METARs form (0343 UTC 23 November 2017)
found at http://www.aviationweather.gov/adds/metars/
 
KSAC 222328Z 2300/2324 VRB03KT P6SM BKN200 
     FM230300 VRB02KT 4SM BR BKN250 
     FM230800 VRB02KT 1/4SM FG VV001 
     FM231800 VRB04KT 2SM BR OVC004 
     FM231900 VRB04KT 4SM BR SCT080 BKN150 
     FM232100 VRB04KT P6SM VCSH SCT080 OVC150
       
KSAF 222329Z 2300/2324 29010KT P6SM SCT250 
     FM230100 36011KT P6SM BKN250 
     FM232000 28007KT P6SM BKN250
       
KSAN 230326Z 2303/2406 VRB06KT P6SM SKC
       
KSAT 222330Z 2300/2406 34005KT P6SM SCT250
       
KSAV 222328Z 2300/2324 01005KT P6SM SCT030 
     FM231300 03007KT P6SM SCT020 OVC100
       
KSBA 222338Z 2300/2324 26006KT P6SM SKC 
     FM230200 VRB03KT P6SM SKC 
     FM231900 17006KT P6SM SKC
       
KSBD 222322Z 2300/2324 VRB06KT P6SM SKC
       
KSBN 222338Z 2300/2324 21002KT P6SM SCT250 
     FM230500 20006KT P6SM BKN060 
     FM231500 22010KT P6SM SCT050
       
KSBP 222338Z 2300/2324 31010KT P6SM SKC 
     FM230400 VRB03KT P6SM SCT250 
     FM231800 31004KT 6SM HZ SCT250 
     FM232200 23016KT P6SM SKC
       
KSBY 230142Z 2302/2324 33007KT P6SM SKC 
     FM232200 28004KT P6SM SCT250
       
KSCK 222328Z 2300/2324 VRB03KT P6SM BKN150 
     FM230600 VRB03KT 2SM BR BKN250 
     FM231200 VRB03KT 1/4SM FG VV001 
     FM232000 31005KT 3SM BR SCT010 
     FM232100 31005KT P6SM BKN150
       
KSDF 222320Z 2300/2406 VRB03KT P6SM FEW250
       
KSDL 222320Z 2300/2324 VRB04KT P6SM SKC 
     FM232000 20004KT P6SM SKC
       
KSDY 222320Z 2300/2324 30005KT P6SM SCT110 
     FM230900 23004KT 4SM BR FEW040 
     FM231600 22007KT 5SM BR BKN030 
     FM231700 22009KT P6SM BKN050
       
KSEA 230307Z 2303/2406 19010KT P6SM -RA SCT045 BKN090 
     FM230400 19010KT P6SM -RA BKN035 OVC050 
     FM230800 21010G20KT 5SM -RA OVC025 
     FM232300 21012G25KT P6SM VCSH BKN035 BKN045
       
KSEZ 230140Z 2302/2324 05010G18KT P6SM FEW250 
     FM231600 VRB05KT P6SM FEW250
       
KSFB 222327Z 2300/2324 05008KT P6SM SCT025 
     FM230600 04006KT P6SM SCT010 BKN025 
     TEMPO 2309/2312 SCT006 BKN010 
     FM231400 10008KT P6SM VCSH SCT025 BKN040 OVC080 
     FM231800 16009KT 5SM SHRA BKN025 
     TEMPO 2318/2322 2SM +SHRA BKN012
       
KSFF 222341Z 2300/2324 VRB03KT P6SM SCT060 OVC080 
     FM230600 20004KT P6SM -SHRA SCT025 OVC040 
     FM231100 VRB04KT P6SM VCSH SCT008 BKN015 OVC080 WS015/23040KT 
     FM231800 20012G20KT P6SM -RA SCT015 OVC025 
     FM232100 22018G30KT P6SM VCSH BKN025 BKN060
       
KSFO 230303Z 2303/2406 14004KT P6SM BKN180 
     FM230500 29005KT P6SM OVC150 
     FM232000 30008KT P6SM VCSH SCT080 OVC100 
     FM240400 29006KT P6SM SCT080 BKN100 OVC120
       
KSGF 222323Z 2300/2324 VRB03KT P6SM SKC 
     FM230600 18006KT P6SM SCT250 
     FM231400 23008KT P6SM SKC
       
KSGJ 230322Z 2303/2324 05007KT P6SM SCT015 BKN060 
     TEMPO 2303/2306 BKN015 
     FM230700 03006KT P6SM VCSH SCT020 BKN035 OVC050 
     FM231000 03008KT 4SM -RA BR SCT015 BKN025 
     FM231400 03013KT 2SM RA BR SCT005 BKN008 
     FM232300 03009KT 4SM -RA BR SCT005 BKN008
       
KSGU 222320Z 2300/2324 VRB04KT P6SM SKC
       
KSHR 222330Z 2300/2324 VRB05KT P6SM SCT080 SCT200
       
KSHV 222340Z 2300/2324 36009KT P6SM FEW250 
     FM230800 VRB03KT P6SM BKN250 
     FM231400 VRB04KT P6SM SCT180 
     FM231700 36005KT P6SM FEW180
       
KSJC 222339Z 2300/2324 32007KT P6SM BKN200 
     FM230500 VRB03KT P6SM OVC200 
     FM232100 31006KT P6SM SCT150 BKN200
       
KSJT 222321Z 2300/2324 01004KT P6SM SCT250
       
TAF KSKA 230302Z 2303/2409 VRB06KT 9999 FEW050 BKN080 620809 QNH2997INS 
     BECMG 2308/2309 20012KT 9999 BKN010 BKN040 QNH2987INS 
     BECMG 2315/2316 20012G18KT 9000 -SHRA SCT040 BKN060 610609 QNH2973INS 
     TEMPO 2316/2324 20025G35KT 510009 
     BECMG 2402/2403 20012KT 9000 -SHRA BKN030 BKN050 610309 QNH2980INS 
     BECMG 2404/2405 20009KT 9999 NSW FEW070 QNH2984INS TX12/2323Z TN07/2312Z
       
TAF KSKF 230200Z 2302/2408 02006KT 9999 SKC QNH3018INS 
     BECMG 2311/2312 27006KT 9999 SKC QNH3021INS 
     BECMG 2323/2324 18006KT 9999 SKC QNH3012INS TX21/2321Z TN04/2312Z
       
KSLC 230249Z 2303/2406 15006KT P6SM BKN200 
     FM232100 30006KT P6SM BKN150 
     FM240300 15006KT P6SM BKN150
       
KSLE 230251Z 2303/2324 18010KT P6SM -RA SCT035 OVC060 
     FM231000 18008KT 6SM -RADZ BKN025 OVC040 
     FM231300 20012KT 4SM -RADZ BR BKN015 OVC030 
     FM232000 22008KT 6SM -RA BR SCT015 OVC025
       
TAF KSLI 222103Z 2221/2403 VRB06KT 9999 SKC QNH2998INS TX32/2222Z TN12/2313Z
       
KSLK 230325Z 2303/2324 VRB03KT P6SM OVC025 
     TEMPO 2303/2306 2SM -SN BR OVC015 
     FM230600 VRB03KT P6SM BKN020 
     FM231800 23008KT P6SM BKN100
       
KSLN 222322Z 2300/2324 19010KT P6SM FEW250 
     FM231200 28006KT P6SM FEW250 
     FM232300 20004KT P6SM FEW250
       
KSME 222338Z 2300/2324 VRB03KT P6SM SKC
       
KSMF 222328Z 2300/2324 VRB04KT P6SM BKN200 
     FM230800 VRB03KT 1/2SM FG OVC002 
     FM231200 VRB03KT 1/4SM FG OVC001 
     FM231800 33004KT 2SM BR OVC004 
     FM231900 32004KT 4SM BR SCT080 BKN150 
     FM232100 14004KT P6SM VCSH SCT080 OVC150
       
KSMN 230244Z 2303/2324 00000KT 4SM BR OVC002 
     FM231100 00000KT P6SM VCFG FEW008 SCT250 
     FM231500 VRB03KT P6SM SCT250 
     FM232100 24008KT P6SM SCT250 AMD LTD TO CLD VIS AND WIND
       
KSMO 222338Z 2300/2324 22005KT P6SM SKC 
     FM230300 VRB03KT P6SM SKC 
     FM232100 23006KT P6SM SKC
       
KSMX 222338Z 2300/2324 32006KT P6SM SKC 
     FM230300 VRB03KT P6SM SKC 
     FM231800 33004KT 6SM HZ SCT250 
     FM232100 31010KT P6SM SCT250
       
KSNA 222322Z 2300/2324 VRB06KT P6SM SKC
       
KSNS 222339Z 2300/2324 31008KT P6SM BKN200 
     FM230800 11005KT P6SM BKN180 
     TEMPO 2313/2316 SCT030 BKN150 
     FM231900 29008KT P6SM FEW150
       
KSNY 222322Z 2300/2324 30010KT P6SM SCT200 
     FM231500 27008KT P6SM SCT200 
     FM231800 28015G24KT P6SM SKC
       
KSPS 222334Z 2300/2324 19006KT P6SM SCT250
       
KSRQ 222330Z 2300/2324 35005KT P6SM VCSH SCT040 BKN200 
     FM230200 07007KT P6SM VCSH SCT030 BKN100 BKN200 
     FM230800 10007KT P6SM VCSH SCT015 BKN035 BKN120 
     FM231300 15010KT 5SM SHRA VCTS SCT015 BKN025CB OVC070 
     FM231600 23010KT 6SM SHRA VCTS SCT020CB BKN040
       
TAF KSSC 230000Z 2300/2406 02006KT 9999 FEW050 SCT220 QNH2998INS 
     BECMG 2314/2315 05009KT 9999 FEW040 SCT200 QNH3003INS 
     BECMG 2323/2324 05006KT 9999 FEW050 SCT220 QNH3001INS TX18/2321Z TN06/2312Z
       
KSSF 222330Z 2300/2324 35004KT P6SM SCT250
       
KSTC 222324Z 2300/2324 15007KT P6SM BKN070 
     FM230600 VRB03KT P6SM SCT100 
     FM231200 30003KT P6SM SKC 
     FM231800 20007KT P6SM FEW100
       
KSTL 230250Z 2303/2406 VRB03KT P6SM BKN250 
     FM231300 18007KT P6SM FEW200 
     FM231700 24008KT P6SM SKC 
     FM240000 VRB03KT P6SM SKC
       
KSTS 230332Z 2304/2324 00000KT 5SM BR OVC200 
     TEMPO 2306/2310 1/2SM FG VV002 
     FM231000 VRB05KT 6SM BR OVC200 
     FM231800 19008KT P6SM VCSH SCT040 BKN050 OVC080 
     TEMPO 2318/2322 -SHRA SCT040 OVC050 
     FM232200 21007KT P6SM -SHRA SCT050 OVC080
       
KSUA 230222Z 2302/2324 09007KT P6SM SCT020 
     FM231300 14007KT P6SM VCSH SCT025 OVC040 
     FM231800 19009KT 5SM SHRA BKN025 
     TEMPO 2318/2322 2SM +SHRA BKN012
       
KSUN 222323Z 2300/2406 12006KT P6SM FEW040 SCT120 SCT180 
     FM230200 32006KT P6SM FEW090 FEW180 
     FM231800 12008KT P6SM SCT050 BKN090 BKN120 
     FM240000 13006KT P6SM BKN050 AMD LTD TO CLD VIS AND WIND 2305/2313
       
KSUS 222324Z 2300/2324 VRB03KT P6SM BKN250 
     FM231200 18007KT P6SM FEW200 
     FM231600 25008KT P6SM SKC
       
TAF KSUU 230303Z 2303/2409 VRB06KT 8000 BR SCT200 QNH3007INS 
     BECMG 2306/2307 VRB06KT 3200 BR SCT200 QNH3008INS 
     BECMG 2320/2321 23009KT 9999 NSW BKN150 QNH3011INS 
     BECMG 2401/2402 VRB06KT 9999 SCT150 QNH3009INS TX21/2321Z TN06/2312Z
       
KSUX 222340Z 2300/2324 18008KT P6SM BKN200 
     FM230400 20005KT P6SM FEW250 
     FM230900 32007KT P6SM FEW250 
     FM231500 VRB03KT P6SM FEW200 
     FM232000 20007KT P6SM FEW250 
     FM232200 17008KT P6SM FEW250
       
KSWF 230239Z 2303/2406 32012G20KT P6SM BKN050 
     FM230400 31010KT P6SM SCT050 
     FM230700 30007KT P6SM SKC AMD NOT SKED
       
KSYR 222321Z 2300/2324 28010G19KT P6SM -SN BKN035 OVC050 
     FM230500 29007KT P6SM BKN035 OVC050 
     FM231400 26004KT P6SM OVC035 
     FM232000 24006KT P6SM BKN070
       
TAF AMD KSZL 222035Z 2220/2401 22006KT 9999 FEW230 QNH3009INS 
     BECMG 2308/2309 23008KT 9999 FEW065 510202 QNH2994INS TX09/2319Z TN00/2312Z AMD LAST NO AMDS AFT 2223 NEXT 2703